createdAt,value
2023-03-22T00:00:42.641Z,84.79
2023-03-22T00:05:58.676Z,84.86
2023-03-22T00:11:02.337Z,85.82
2023-03-22T00:16:07.945Z,85.64
2023-03-22T00:21:14.078Z,85.96
2023-03-22T00:26:17.987Z,86.23
2023-03-22T00:31:21.723Z,85.99
2023-03-22T00:36:25.471Z,87.80
2023-03-22T00:41:29.158Z,87.80
2023-03-22T00:46:32.971Z,85.85
2023-03-22T00:51:36.726Z,85.47
2023-03-22T00:56:40.561Z,85.89
2023-03-22T01:01:48.690Z,85.45
2023-03-22T01:06:59.610Z,85.61
2023-03-22T01:12:03.457Z,85.95
2023-03-22T01:17:08.051Z,86.53
2023-03-22T01:22:12.161Z,85.53
2023-03-22T01:27:16.971Z,85.45
2023-03-22T01:32:20.756Z,86.70
2023-03-22T01:37:28.079Z,86.81
2023-03-22T01:42:32.776Z,86.63
2023-03-22T01:47:37.275Z,87.87
2023-03-22T01:52:41.938Z,87.67
2023-03-22T01:57:56.065Z,87.76
2023-03-22T02:03:08.681Z,87.95
2023-03-22T02:08:17.083Z,87.68
2023-03-22T02:13:42.671Z,86.64
2023-03-22T02:19:35.650Z,86.43
2023-03-22T02:24:49.976Z,86.86
2023-03-22T02:30:21.386Z,86.55
2023-03-22T02:35:37.244Z,86.70
2023-03-22T02:40:44.097Z,87.04
2023-03-22T02:45:49.938Z,87.31
2023-03-22T02:51:01.331Z,87.76
2023-03-22T02:56:19.941Z,87.55
2023-03-22T03:01:36.962Z,87.21
2023-03-22T03:06:46.490Z,87.50
2023-03-22T03:11:52.689Z,87.85
2023-03-22T03:17:10.896Z,87.76
2023-03-22T03:22:26.627Z,88.43
2023-03-22T03:27:37.896Z,89.20
2023-03-22T03:33:19.647Z,89.83
2023-03-22T03:38:26.952Z,89.63
2023-03-22T03:43:31.812Z,89.06
2023-03-22T03:48:38.392Z,89.30
2023-03-22T03:53:42.356Z,89.43
2023-03-22T03:58:46.101Z,89.58
2023-03-22T04:03:51.002Z,89.55
2023-03-22T04:09:14.779Z,89.95
2023-03-22T04:14:21.608Z,90.29
2023-03-22T04:19:26.242Z,90.05
2023-03-22T04:24:30.047Z,89.25
2023-03-22T04:29:37.450Z,88.70
2023-03-22T04:34:58.399Z,89.18
2023-03-22T04:40:06.274Z,89.29
2023-03-22T04:45:21.291Z,89.37
2023-03-22T04:50:30.476Z,89.70
2023-03-22T04:55:37.042Z,89.96
2023-03-22T05:00:42.678Z,90.12
2023-03-22T05:05:56.757Z,90.29
2023-03-22T05:11:10.026Z,90.32
2023-03-22T05:16:14.008Z,90.34
2023-03-22T05:21:28.914Z,90.67
2023-03-22T05:26:38.315Z,90.46
2023-03-22T05:31:42.497Z,90.32
2023-03-22T05:36:46.876Z,90.85
2023-03-22T05:42:16.600Z,90.97
2023-03-22T05:47:21.400Z,90.75
2023-03-22T05:52:37.230Z,90.32
2023-03-22T05:58:00.074Z,90.62
2023-03-22T06:03:04.713Z,90.43
2023-03-22T06:08:10.556Z,89.94
2023-03-22T06:13:14.942Z,90.02
2023-03-22T06:18:18.814Z,89.75
2023-03-22T06:23:26.839Z,90.02
2023-03-22T06:28:31.210Z,89.60
2023-03-22T06:33:38.248Z,89.48
2023-03-22T06:38:54.964Z,89.87
2023-03-22T06:43:59.348Z,88.67
2023-03-22T06:49:32.131Z,88.22
2023-03-22T06:54:36.460Z,87.84
2023-03-22T06:59:40.525Z,87.24
2023-03-22T07:04:46.663Z,86.27
2023-03-22T07:09:50.883Z,85.72
2023-03-22T07:14:55.133Z,84.88
2023-03-22T07:20:22.075Z,84.33
2023-03-22T07:25:26.584Z,84.33
2023-03-22T07:30:39.099Z,84.06
2023-03-22T07:35:43.109Z,83.86
2023-03-22T07:40:47.352Z,83.84
2023-03-22T07:45:53.166Z,83.70
2023-03-22T07:51:17.361Z,82.99
2023-03-22T07:56:21.550Z,82.79
2023-03-22T08:01:25.235Z,82.30
2023-03-22T08:06:37.368Z,81.66
2023-03-22T08:11:41.619Z,81.04
2023-03-22T08:16:46.667Z,80.78
2023-03-22T08:21:51.325Z,79.66
2023-03-22T08:27:19.518Z,79.04
2023-03-22T08:32:26.038Z,77.98
2023-03-22T08:37:29.698Z,77.65
2023-03-22T08:42:34.061Z,77.00
2023-03-22T08:47:38.551Z,76.09
2023-03-22T08:52:44.515Z,75.56
2023-03-22T08:57:59.319Z,75.49
2023-03-22T09:03:13.363Z,73.74
2023-03-22T09:08:19.381Z,73.44
2023-03-22T09:13:27.255Z,72.06
2023-03-22T09:18:36.446Z,72.67
2023-03-22T09:23:48.147Z,72.53
2023-03-22T09:28:56.019Z,72.00
2023-03-22T09:33:59.887Z,70.23
2023-03-22T09:39:07.575Z,69.09
2023-03-22T09:44:17.512Z,61.21
2023-03-22T09:49:26.649Z,63.25
2023-03-22T09:54:34.485Z,65.96
2023-03-22T09:59:48.604Z,65.45
2023-03-22T10:05:14.806Z,62.82
2023-03-22T10:10:23.373Z,62.43
2023-03-22T10:15:49.917Z,60.61
2023-03-22T10:21:02.102Z,60.01
2023-03-22T10:26:07.707Z,61.72
2023-03-22T10:31:16.206Z,58.09
2023-03-22T10:36:23.859Z,58.33
2023-03-22T10:41:28.881Z,59.07
2023-03-22T10:46:38.974Z,59.19
2023-03-22T10:51:57.753Z,59.82
2023-03-22T10:57:01.611Z,60.47
2023-03-22T11:02:05.587Z,58.46
2023-03-22T11:07:17.246Z,58.78
2023-03-22T11:12:21.074Z,56.96
2023-03-22T11:17:26.374Z,56.36
2023-03-22T11:22:44.440Z,57.89
2023-03-22T11:28:15.715Z,56.07
2023-03-22T11:33:21.744Z,56.47
2023-03-22T11:38:30.001Z,55.88
2023-03-22T11:43:40.259Z,55.67
2023-03-22T11:48:46.900Z,55.74
2023-03-22T11:53:50.918Z,56.25
2023-03-22T11:59:06.078Z,55.44
2023-03-22T12:04:16.257Z,56.28
2023-03-22T12:09:41.264Z,54.92
2023-03-22T12:15:04.234Z,54.62
2023-03-22T12:20:29.771Z,54.80
2023-03-22T12:25:35.708Z,53.35
2023-03-22T12:30:45.495Z,54.53
2023-03-22T12:35:51.235Z,53.63
2023-03-22T12:40:57.766Z,53.21
2023-03-22T12:46:03.980Z,54.06
2023-03-22T12:51:09.927Z,53.80
2023-03-22T12:56:16.360Z,53.43
2023-03-22T13:01:24.736Z,52.53
2023-03-22T13:06:28.635Z,52.98
2023-03-22T13:11:32.635Z,53.49
2023-03-22T13:16:49.744Z,52.11
2023-03-22T13:22:18.016Z,48.58
2023-03-22T13:27:21.970Z,51.16
2023-03-22T13:32:25.749Z,51.64
2023-03-22T13:37:45.517Z,49.90
2023-03-22T13:42:49.263Z,51.49
2023-03-22T13:48:10.389Z,51.37
2023-03-22T13:53:34.094Z,51.26
2023-03-22T13:58:47.122Z,50.91
2023-03-22T14:03:51.426Z,49.06
2023-03-22T14:08:59.571Z,48.46
2023-03-22T14:14:07.344Z,48.37
2023-03-22T14:19:17.932Z,47.94
